createdAt,value
2018-12-11T00:00:51.784Z,3.98
2018-12-11T00:03:20.373Z,5.07
2018-12-11T00:05:48.936Z,2.53
2018-12-11T00:08:17.510Z,2.75
2018-12-11T00:10:46.112Z,3.27
2018-12-11T00:13:14.701Z,3.10
2018-12-11T00:15:43.277Z,3.93
2018-12-11T00:18:11.877Z,4.53
2018-12-11T00:20:40.487Z,3.43
2018-12-11T00:23:09.052Z,4.10
2018-12-11T00:25:37.655Z,4.45
2018-12-11T00:28:06.253Z,3.83
2018-12-11T00:30:34.850Z,3.40
2018-12-11T00:33:04.377Z,2.40
2018-12-11T00:35:32.960Z,3.33
2018-12-11T00:38:01.540Z,4.22
2018-12-11T00:40:30.244Z,2.93
2018-12-11T00:42:58.842Z,6.20
2018-12-11T00:45:27.423Z,3.37
2018-12-11T00:47:55.989Z,4.87
2018-12-11T00:50:24.567Z,3.20
2018-12-11T00:52:53.163Z,3.23
2018-12-11T00:55:21.779Z,3.52
2018-12-11T00:57:50.342Z,5.90
2018-12-11T01:00:18.917Z,3.45
2018-12-11T01:02:47.521Z,3.53
2018-12-11T01:05:16.274Z,3.65
2018-12-11T01:07:45.139Z,3.83
2018-12-11T01:10:13.727Z,4.60
2018-12-11T01:12:42.291Z,4.20
2018-12-11T01:15:10.914Z,4.07
2018-12-11T01:17:39.499Z,5.63
2018-12-11T01:20:08.325Z,3.05
2018-12-11T01:22:36.920Z,4.37
2018-12-11T01:25:05.765Z,3.67
2018-12-11T01:27:34.354Z,3.45
2018-12-11T01:30:02.980Z,2.47
2018-12-11T01:32:31.570Z,5.25
2018-12-11T01:35:00.170Z,2.40
2018-12-11T01:37:28.865Z,2.42
2018-12-11T01:39:57.413Z,3.33
2018-12-11T01:42:26.069Z,2.95
2018-12-11T01:44:54.624Z,6.55
2018-12-11T01:47:23.231Z,3.87
2018-12-11T01:49:51.812Z,3.80
2018-12-11T01:52:20.381Z,3.90
2018-12-11T01:54:48.983Z,4.17
2018-12-11T01:57:17.548Z,3.27
2018-12-11T01:59:46.140Z,3.12
2018-12-11T02:02:14.728Z,2.87
2018-12-11T02:04:43.294Z,5.50
2018-12-11T02:07:11.876Z,2.83
2018-12-11T02:09:40.443Z,6.37
2018-12-11T02:12:09.073Z,3.10
2018-12-11T02:14:37.686Z,6.80
2018-12-11T02:17:06.285Z,3.80
2018-12-11T02:19:35.188Z,3.50
2018-12-11T02:22:03.757Z,3.60
2018-12-11T02:24:32.364Z,4.15
2018-12-11T02:27:00.926Z,3.42
2018-12-11T02:29:29.527Z,3.85
2018-12-11T02:31:58.100Z,6.20
2018-12-11T02:34:26.678Z,2.27
2018-12-11T02:36:55.264Z,2.70
2018-12-11T02:39:23.944Z,3.52
2018-12-11T02:41:52.525Z,3.27
2018-12-11T02:44:21.154Z,2.90
2018-12-11T02:46:49.714Z,3.80
2018-12-11T02:49:18.269Z,3.65
2018-12-11T02:51:49.848Z,4.60
2018-12-11T02:54:18.432Z,3.40
2018-12-11T02:56:47.010Z,2.17
2018-12-11T02:59:15.577Z,4.83
2018-12-11T03:01:44.162Z,2.10
2018-12-11T03:04:12.752Z,3.35
2018-12-11T03:06:41.352Z,3.37
2018-12-11T03:09:09.924Z,2.77
2018-12-11T03:11:38.485Z,3.83
2018-12-11T03:14:07.067Z,2.47
2018-12-11T03:16:35.648Z,2.12
2018-12-11T03:19:04.244Z,3.50
2018-12-11T03:21:32.824Z,2.72
2018-12-11T03:24:01.419Z,2.70
2018-12-11T03:26:29.996Z,2.60
2018-12-11T03:28:58.585Z,2.62
2018-12-11T03:31:27.166Z,4.10
2018-12-11T03:33:55.741Z,4.50
2018-12-11T03:36:24.352Z,6.30
2018-12-11T03:38:52.910Z,2.27
2018-12-11T03:41:22.240Z,3.45
2018-12-11T03:43:50.832Z,4.03
2018-12-11T03:46:19.413Z,4.47
2018-12-11T03:48:47.969Z,3.52
2018-12-11T03:51:16.534Z,2.45
2018-12-11T03:53:45.101Z,2.85
2018-12-11T03:56:13.693Z,1.90
2018-12-11T03:58:42.281Z,2.92
2018-12-11T04:01:10.849Z,2.65
2018-12-11T04:03:39.416Z,3.55
2018-12-11T04:06:08.002Z,3.52
2018-12-11T04:08:36.576Z,3.22
2018-12-11T04:11:06.075Z,3.58
2018-12-11T04:13:34.676Z,2.05
2018-12-11T04:16:03.243Z,3.75
2018-12-11T04:18:31.818Z,3.65
2018-12-11T04:21:00.406Z,3.98
2018-12-11T04:23:28.990Z,3.08
2018-12-11T04:25:57.573Z,4.10
2018-12-11T04:28:26.168Z,3.62
2018-12-11T04:30:54.721Z,2.70
2018-12-11T04:33:23.306Z,2.30
2018-12-11T04:35:51.919Z,2.80
2018-12-11T04:38:20.503Z,1.87
2018-12-11T04:40:49.088Z,2.50
2018-12-11T04:43:17.650Z,2.20
2018-12-11T04:45:46.215Z,6.55
2018-12-11T04:48:14.788Z,1.62
2018-12-11T04:50:43.336Z,3.55
2018-12-11T04:53:11.961Z,3.85
2018-12-11T04:55:40.542Z,1.80
2018-12-11T04:58:09.103Z,4.65
2018-12-11T05:00:37.665Z,3.15
2018-12-11T05:03:06.240Z,10.63
2018-12-11T05:05:34.824Z,3.58
2018-12-11T05:08:07.581Z,5.10
2018-12-11T05:10:36.148Z,2.87
2018-12-11T05:13:04.732Z,3.42
2018-12-11T05:15:33.320Z,2.65
2018-12-11T05:18:01.898Z,3.20
2018-12-11T05:20:30.496Z,2.67
2018-12-11T05:22:59.079Z,2.08
2018-12-11T05:25:27.697Z,3.65
2018-12-11T05:27:56.285Z,2.62
2018-12-11T05:30:24.852Z,3.55
2018-12-11T05:32:53.420Z,5.62
2018-12-11T05:35:21.979Z,4.08
2018-12-11T05:37:50.562Z,1.98
2018-12-11T05:40:19.440Z,5.67
2018-12-11T05:42:48.020Z,5.65
2018-12-11T05:45:16.585Z,3.55
2018-12-11T05:47:45.139Z,2.90
2018-12-11T05:50:13.729Z,4.75
2018-12-11T05:52:42.312Z,6.47
2018-12-11T05:55:10.885Z,4.67
2018-12-11T05:57:39.464Z,4.85
2018-12-11T06:00:09.270Z,6.20
2018-12-11T06:02:37.833Z,8.35
2018-12-11T06:05:07.972Z,15.35
2018-12-11T06:07:36.549Z,14.20
2018-12-11T06:10:06.377Z,9.00
2018-12-11T06:12:34.960Z,12.07
2018-12-11T06:15:03.906Z,9.50
2018-12-11T06:17:32.493Z,11.45
2018-12-11T06:20:01.053Z,4.55
2018-12-11T06:22:29.600Z,6.25
2018-12-11T06:24:58.234Z,9.13
2018-12-11T06:27:26.872Z,3.75
2018-12-11T06:29:55.790Z,5.05
2018-12-11T06:32:24.356Z,2.98
2018-12-11T06:34:52.944Z,3.08
2018-12-11T06:37:21.556Z,4.37
2018-12-11T06:39:50.124Z,3.05
2018-12-11T06:42:18.689Z,2.45
2018-12-11T06:44:47.269Z,4.67
2018-12-11T06:47:15.845Z,3.90
2018-12-11T06:49:44.428Z,2.65
2018-12-11T06:52:13.000Z,3.80
2018-12-11T06:54:41.560Z,4.62
2018-12-11T06:57:10.152Z,3.50
2018-12-11T06:59:38.713Z,4.00
2018-12-11T07:02:07.303Z,4.70
2018-12-11T07:04:35.883Z,6.87
2018-12-11T07:07:04.586Z,7.08
2018-12-11T07:09:33.481Z,7.15
2018-12-11T07:12:02.427Z,6.58
2018-12-11T07:14:30.981Z,10.88
2018-12-11T07:16:59.565Z,7.50
2018-12-11T07:19:28.120Z,7.37
2018-12-11T07:21:56.696Z,7.22
2018-12-11T07:24:25.302Z,14.87
2018-12-11T07:26:53.868Z,19.52
2018-12-11T07:29:22.460Z,14.43
2018-12-11T07:31:51.040Z,11.68
2018-12-11T07:34:19.601Z,8.23
2018-12-11T07:36:48.169Z,11.33
2018-12-11T07:39:16.783Z,9.55
2018-12-11T07:41:45.369Z,10.03
2018-12-11T07:44:13.947Z,5.47
2018-12-11T07:46:42.589Z,7.10
2018-12-11T07:49:11.188Z,7.97
2018-12-11T07:51:39.772Z,6.10
2018-12-11T07:54:09.204Z,8.48
2018-12-11T07:56:37.775Z,7.30
2018-12-11T07:59:06.353Z,9.35
2018-12-11T08:01:34.918Z,5.65
2018-12-11T08:04:03.738Z,5.22
2018-12-11T08:06:32.312Z,5.95
2018-12-11T08:09:00.868Z,5.65
2018-12-11T08:11:29.428Z,6.83
2018-12-11T08:13:58.020Z,5.42
2018-12-11T08:16:27.036Z,5.65
2018-12-11T08:18:56.031Z,6.08
2018-12-11T08:21:25.395Z,4.90
2018-12-11T08:23:53.965Z,4.47
2018-12-11T08:26:22.946Z,3.80
2018-12-11T08:28:51.753Z,3.80
2018-12-11T08:31:20.316Z,2.58
2018-12-11T08:33:49.330Z,6.78
2018-12-11T08:36:17.885Z,5.80
2018-12-11T08:38:46.445Z,3.20
2018-12-11T08:41:15.038Z,4.45
2018-12-11T08:43:43.580Z,6.92
2018-12-11T08:46:12.156Z,3.10
2018-12-11T08:48:40.729Z,4.10
2018-12-11T08:51:09.305Z,3.85
2018-12-11T08:53:37.880Z,3.52
2018-12-11T08:56:06.442Z,6.30
2018-12-11T08:58:35.033Z,9.50
2018-12-11T09:01:03.769Z,8.83
2018-12-11T09:03:32.344Z,8.78
2018-12-11T09:06:00.917Z,6.30
2018-12-11T09:08:29.490Z,6.47
2018-12-11T09:10:58.073Z,4.28
2018-12-11T09:13:26.662Z,8.43
2018-12-11T09:15:55.236Z,5.22
2018-12-11T09:18:23.824Z,3.35
2018-12-11T09:20:52.635Z,5.93
2018-12-11T09:23:21.291Z,7.40
2018-12-11T09:25:49.859Z,7.12
2018-12-11T09:28:18.897Z,7.80
2018-12-11T09:30:47.470Z,9.90
2018-12-11T09:33:16.033Z,6.53
2018-12-11T09:35:44.632Z,5.77
2018-12-11T09:38:13.225Z,7.70
2018-12-11T09:40:41.800Z,8.57
2018-12-11T09:43:10.393Z,5.20
2018-12-11T09:45:38.959Z,3.67
2018-12-11T09:48:07.545Z,4.93
2018-12-11T09:50:36.123Z,5.17
2018-12-11T09:53:04.702Z,4.93
2018-12-11T09:55:33.288Z,5.53
2018-12-11T09:58:01.848Z,7.77
2018-12-11T10:00:30.456Z,6.60
2018-12-11T10:02:59.124Z,4.57
2018-12-11T10:05:27.703Z,3.70
2018-12-11T10:07:56.316Z,5.83
2018-12-11T10:10:24.901Z,4.90
2018-12-11T10:12:53.469Z,6.00
2018-12-11T10:15:22.061Z,4.83
2018-12-11T10:17:50.616Z,4.33
2018-12-11T10:20:19.425Z,4.33
2018-12-11T10:22:48.233Z,7.20
2018-12-11T10:25:16.808Z,8.40
2018-12-11T10:27:45.372Z,3.77
2018-12-11T10:30:14.656Z,5.70
2018-12-11T10:32:45.980Z,6.43
2018-12-11T10:35:14.588Z,4.80
2018-12-11T10:37:43.162Z,5.23
2018-12-11T10:40:11.741Z,5.63
2018-12-11T10:42:40.338Z,5.87
2018-12-11T10:45:09.116Z,3.37
2018-12-11T10:47:37.673Z,5.23
2018-12-11T10:50:07.628Z,4.57
2018-12-11T10:52:36.220Z,3.47
2018-12-11T10:55:05.048Z,4.23
2018-12-11T10:57:33.618Z,5.63
2018-12-11T11:00:02.222Z,5.83
2018-12-11T11:02:31.128Z,4.23
2018-12-11T11:04:59.685Z,4.50
2018-12-11T11:07:28.283Z,4.83
2018-12-11T11:09:56.876Z,4.23
2018-12-11T11:12:25.458Z,4.90
2018-12-11T11:14:54.141Z,4.33
2018-12-11T11:17:22.726Z,5.03
2018-12-11T11:19:51.339Z,5.27
2018-12-11T11:22:19.906Z,6.77
2018-12-11T11:24:48.491Z,5.33
2018-12-11T11:27:17.104Z,7.33
2018-12-11T11:29:45.763Z,8.30
2018-12-11T11:32:14.365Z,15.43
2018-12-11T11:34:42.943Z,14.77
2018-12-11T11:37:11.565Z,14.23
2018-12-11T11:39:40.160Z,11.93
2018-12-11T11:42:08.729Z,9.27
2018-12-11T11:44:37.290Z,7.03
2018-12-11T11:47:06.048Z,7.50
2018-12-11T11:49:34.600Z,9.17
2018-12-11T11:52:03.204Z,6.17
2018-12-11T11:54:31.925Z,4.77
2018-12-11T11:57:00.485Z,5.40
2018-12-11T11:59:35.800Z,4.40
2018-12-11T12:02:04.467Z,6.30
2018-12-11T12:04:33.024Z,4.80
2018-12-11T12:07:01.600Z,6.20
2018-12-11T12:09:30.167Z,3.70
2018-12-11T12:11:58.784Z,3.53
2018-12-11T12:14:27.314Z,4.00
2018-12-11T12:16:55.909Z,6.93
2018-12-11T12:19:24.508Z,4.47
2018-12-11T12:21:53.079Z,4.10
2018-12-11T12:24:21.657Z,3.70
2018-12-11T12:26:50.989Z,2.80
2018-12-11T12:29:19.552Z,3.60
2018-12-11T12:31:48.143Z,3.40
2018-12-11T12:34:16.711Z,4.00
2018-12-11T12:36:45.329Z,3.43
2018-12-11T12:39:13.917Z,3.40
2018-12-11T12:41:42.493Z,3.87
2018-12-11T12:44:11.045Z,3.30
2018-12-11T12:46:39.645Z,2.77
2018-12-11T12:49:08.192Z,6.23
2018-12-11T12:51:36.772Z,3.10
2018-12-11T12:54:05.343Z,6.20
2018-12-11T12:56:34.021Z,3.57
2018-12-11T12:59:02.611Z,3.43
2018-12-11T13:01:31.177Z,3.10
2018-12-11T13:03:59.756Z,2.83
2018-12-11T13:06:28.647Z,5.07
2018-12-11T13:08:57.432Z,5.00
2018-12-11T13:11:26.228Z,3.37
2018-12-11T13:13:54.781Z,4.70
2018-12-11T13:16:23.336Z,2.10
2018-12-11T13:18:51.939Z,4.17
2018-12-11T13:21:20.520Z,2.57
2018-12-11T13:23:49.072Z,3.73
2018-12-11T13:26:17.728Z,6.27
2018-12-11T13:28:46.298Z,3.40
2018-12-11T13:31:14.864Z,3.53
2018-12-11T13:33:43.452Z,2.70
2018-12-11T13:36:12.039Z,3.50
2018-12-11T13:38:40.632Z,6.27
2018-12-11T13:41:09.215Z,5.77
2018-12-11T13:43:37.881Z,3.40
2018-12-11T13:46:06.485Z,5.67
2018-12-11T13:48:35.162Z,3.80
2018-12-11T13:51:03.876Z,5.17
2018-12-11T13:53:32.447Z,3.53
2018-12-11T13:56:01.030Z,5.40
2018-12-11T13:58:29.589Z,2.30
2018-12-11T14:00:58.156Z,3.83
2018-12-11T14:03:26.725Z,2.87
2018-12-11T14:05:55.291Z,2.63
2018-12-11T14:08:23.865Z,2.83
2018-12-11T14:10:52.420Z,3.40
2018-12-11T14:13:20.976Z,3.40
2018-12-11T14:15:49.695Z,3.70
2018-12-11T14:18:18.272Z,5.07
2018-12-11T14:20:46.825Z,3.03
2018-12-11T14:23:15.410Z,2.63
2018-12-11T14:25:43.992Z,2.17
2018-12-11T14:28:12.740Z,2.20
2018-12-11T14:30:41.300Z,3.30
2018-12-11T14:33:09.865Z,2.93
2018-12-11T14:35:38.445Z,2.57
2018-12-11T14:38:07.024Z,2.43
2018-12-11T14:40:35.637Z,2.53
2018-12-11T14:43:04.208Z,1.97
2018-12-11T14:45:32.789Z,2.70
2018-12-11T14:48:01.384Z,2.80
2018-12-11T14:50:29.966Z,3.10
2018-12-11T14:53:00.441Z,6.30
2018-12-11T14:55:29.021Z,2.57
2018-12-11T14:57:57.541Z,6.43
2018-12-11T15:00:26.141Z,3.70
2018-12-11T15:02:55.066Z,2.60
2018-12-11T15:05:23.642Z,6.40
2018-12-11T15:07:52.442Z,4.23
2018-12-11T15:10:21.544Z,5.33
2018-12-11T15:12:50.272Z,3.87
2018-12-11T15:15:18.973Z,6.37
2018-12-11T15:17:47.528Z,4.73
2018-12-11T15:20:16.124Z,4.73
2018-12-11T15:22:44.759Z,5.60
2018-12-11T15:25:13.452Z,6.73
2018-12-11T15:27:42.432Z,5.80
2018-12-11T15:30:11.012Z,6.10
2018-12-11T15:32:39.584Z,5.37
2018-12-11T15:35:08.159Z,10.43
2018-12-11T15:37:36.733Z,6.30
2018-12-11T15:40:06.197Z,5.33
2018-12-11T15:42:34.768Z,12.00
2018-12-11T15:45:03.436Z,9.37
2018-12-11T15:47:32.009Z,4.10
2018-12-11T15:50:00.580Z,8.10
2018-12-11T15:52:29.165Z,7.13
2018-12-11T15:54:57.733Z,5.03
2018-12-11T15:57:26.284Z,6.07
2018-12-11T15:59:54.865Z,6.53
2018-12-11T16:02:23.440Z,10.63
2018-12-11T16:04:52.029Z,8.33
2018-12-11T16:07:20.617Z,7.97
2018-12-11T16:09:49.169Z,11.80
2018-12-11T16:12:17.738Z,11.67
2018-12-11T16:14:46.325Z,6.30
2018-12-11T16:17:14.892Z,12.80
2018-12-11T16:19:43.457Z,8.30
2018-12-11T16:22:12.036Z,9.57
2018-12-11T16:24:40.597Z,11.00
2018-12-11T16:27:09.194Z,7.50
2018-12-11T16:29:37.784Z,9.30
2018-12-11T16:32:06.392Z,9.73
2018-12-11T16:34:34.994Z,9.73
2018-12-11T16:37:03.574Z,11.57
2018-12-11T16:39:32.164Z,9.97
2018-12-11T16:42:00.767Z,20.53
2018-12-11T16:44:29.345Z,18.63
2018-12-11T16:46:57.905Z,17.80
2018-12-11T16:49:26.529Z,22.93
2018-12-11T16:51:55.105Z,16.97
2018-12-11T16:54:23.677Z,17.87
2018-12-11T16:56:52.280Z,16.23
2018-12-11T16:59:22.784Z,13.83
2018-12-11T17:01:51.368Z,12.30
2018-12-11T17:04:19.960Z,9.50
2018-12-11T17:06:48.531Z,13.73
2018-12-11T17:09:17.107Z,14.07
2018-12-11T17:11:45.704Z,16.60
2018-12-11T17:14:14.687Z,11.90
2018-12-11T17:16:43.574Z,13.13
2018-12-11T17:19:12.125Z,12.87
2018-12-11T17:21:46.774Z,9.37
2018-12-11T17:24:11.381Z,12.20
2018-12-11T17:26:39.960Z,14.83
2018-12-11T17:29:08.516Z,7.90
2018-12-11T17:31:37.112Z,13.57
2018-12-11T17:34:05.665Z,9.40
2018-12-11T17:36:34.268Z,10.77
2018-12-11T17:39:04.581Z,10.60
2018-12-11T17:41:33.148Z,10.53
2018-12-11T17:44:01.788Z,8.93
2018-12-11T17:46:30.445Z,12.37
2018-12-11T17:48:59.018Z,11.10
2018-12-11T17:51:27.600Z,10.10
2018-12-11T17:53:56.172Z,11.73
2018-12-11T17:56:24.773Z,8.10
2018-12-11T17:58:53.478Z,9.93
2018-12-11T18:01:24.040Z,9.67
2018-12-11T18:03:52.633Z,9.40
2018-12-11T18:06:21.229Z,23.70
2018-12-11T18:08:49.848Z,7.90
2018-12-11T18:11:18.401Z,7.97
2018-12-11T18:13:46.985Z,9.37
2018-12-11T18:16:15.536Z,10.53
2018-12-11T18:18:44.098Z,9.50
2018-12-11T18:21:12.700Z,6.50
2018-12-11T18:23:41.299Z,7.90
2018-12-11T18:26:09.973Z,7.97
2018-12-11T18:28:38.562Z,8.23
2018-12-11T18:31:07.125Z,10.83
2018-12-11T18:33:35.836Z,6.00
2018-12-11T18:36:04.455Z,7.20
2018-12-11T18:38:33.013Z,6.57
2018-12-11T18:41:01.604Z,11.87
2018-12-11T18:43:30.160Z,5.57
2018-12-11T18:45:58.888Z,6.13
2018-12-11T18:48:27.469Z,6.50
2018-12-11T18:50:56.033Z,9.00
2018-12-11T18:53:24.617Z,6.20
2018-12-11T18:55:53.216Z,7.63
2018-12-11T18:58:21.784Z,8.67
2018-12-11T19:00:50.372Z,5.40
2018-12-11T19:03:19.057Z,6.10
2018-12-11T19:05:47.580Z,6.93
2018-12-11T19:08:16.325Z,8.33
2018-12-11T19:10:44.961Z,8.73
2018-12-11T19:13:13.653Z,5.50
2018-12-11T19:15:42.532Z,5.73
2018-12-11T19:18:11.500Z,4.80
2018-12-11T19:20:40.081Z,4.60
2018-12-11T19:23:15.129Z,6.40
2018-12-11T19:25:43.884Z,5.70
2018-12-11T19:28:12.688Z,8.33
2018-12-11T19:30:41.436Z,4.70
2018-12-11T19:33:10.076Z,4.47
2018-12-11T19:35:38.773Z,4.40
2018-12-11T19:38:07.492Z,7.73
2018-12-11T19:40:40.794Z,7.78
2018-12-11T19:43:07.088Z,6.37
2018-12-11T19:45:35.909Z,5.90
2018-12-11T19:48:04.524Z,5.40
2018-12-11T19:50:33.154Z,10.87
2018-12-11T19:53:01.728Z,5.77
2018-12-11T19:55:30.337Z,7.40
2018-12-11T19:57:59.831Z,4.50
2018-12-11T20:00:28.689Z,5.27
2018-12-11T20:02:57.314Z,8.03
2018-12-11T20:05:25.925Z,6.20
2018-12-11T20:07:54.517Z,5.33
2018-12-11T20:10:27.287Z,4.95
2018-12-11T20:12:55.890Z,5.33
2018-12-11T20:15:24.484Z,7.42
2018-12-11T20:17:53.517Z,6.43
2018-12-11T20:20:27.939Z,5.77
2018-12-11T20:22:56.512Z,5.53
2018-12-11T20:25:25.095Z,5.50
2018-12-11T20:27:53.676Z,5.43
2018-12-11T20:30:22.245Z,5.87
2018-12-11T20:32:50.857Z,4.87
2018-12-11T20:35:25.802Z,6.97
2018-12-11T20:37:54.399Z,6.43
2018-12-11T20:40:22.972Z,8.63
2018-12-11T20:42:51.544Z,5.43
2018-12-11T20:45:20.128Z,6.67
2018-12-11T20:47:48.740Z,6.90
2018-12-11T20:50:17.461Z,5.70
2018-12-11T20:52:46.341Z,6.55
2018-12-11T20:55:15.054Z,7.80
2018-12-11T20:57:44.365Z,8.23
2018-12-11T21:00:13.090Z,8.98
2018-12-11T21:02:41.692Z,5.60
2018-12-11T21:05:10.256Z,7.10
2018-12-11T21:07:38.834Z,6.28
2018-12-11T21:10:10.109Z,6.23
2018-12-11T21:12:38.641Z,7.05
2018-12-11T21:15:08.244Z,5.60
2018-12-11T21:17:36.810Z,6.60
2018-12-11T21:20:06.182Z,6.45
2018-12-11T21:22:34.809Z,5.70
2018-12-11T21:25:04.104Z,5.28
2018-12-11T21:27:32.669Z,5.90
2018-12-11T21:30:01.257Z,6.03
2018-12-11T21:32:29.821Z,5.80
2018-12-11T21:34:58.388Z,6.22
2018-12-11T21:37:27.884Z,6.67
2018-12-11T21:39:56.445Z,7.35
2018-12-11T21:42:25.029Z,8.63
2018-12-11T21:44:53.613Z,5.20
2018-12-11T21:47:22.168Z,6.12
2018-12-11T21:49:50.725Z,7.87
2018-12-11T21:52:20.028Z,6.40
2018-12-11T21:54:48.711Z,6.35
2018-12-11T21:57:17.300Z,5.42
2018-12-11T21:59:45.888Z,6.62
2018-12-11T22:02:14.457Z,8.25
2018-12-11T22:04:43.040Z,7.92
2018-12-11T22:07:11.644Z,9.33
2018-12-11T22:09:40.229Z,7.47
2018-12-11T22:12:08.794Z,7.20
2018-12-11T22:14:37.480Z,7.87
2018-12-11T22:17:06.041Z,4.35
2018-12-11T22:19:34.624Z,6.33
2018-12-11T22:22:03.241Z,6.37
2018-12-11T22:24:31.813Z,6.50
2018-12-11T22:27:00.400Z,7.78
2018-12-11T22:29:28.969Z,5.78
2018-12-11T22:31:57.533Z,7.25
2018-12-11T22:34:26.122Z,5.25
2018-12-11T22:36:54.700Z,5.30
2018-12-11T22:39:23.827Z,5.58
2018-12-11T22:41:52.569Z,4.37
2018-12-11T22:44:21.123Z,7.55
2018-12-11T22:46:49.725Z,5.70
2018-12-11T22:49:18.413Z,6.25
2018-12-11T22:51:47.104Z,5.85
2018-12-11T22:54:15.820Z,7.08
2018-12-11T22:56:44.825Z,6.37
2018-12-11T22:59:13.384Z,6.60
2018-12-11T23:01:41.970Z,8.63
2018-12-11T23:04:10.519Z,5.83
2018-12-11T23:06:40.969Z,9.18
2018-12-11T23:09:09.924Z,5.55
2018-12-11T23:11:38.506Z,6.05
2018-12-11T23:14:07.077Z,4.90
2018-12-11T23:16:35.667Z,6.50
2018-12-11T23:19:04.282Z,5.72
2018-12-11T23:21:32.872Z,6.90
2018-12-11T23:24:02.052Z,5.03
2018-12-11T23:26:30.636Z,4.00
2018-12-11T23:28:59.208Z,5.08
2018-12-11T23:31:27.867Z,6.28
2018-12-11T23:33:56.592Z,6.58
2018-12-11T23:36:25.170Z,6.30
2018-12-11T23:38:53.725Z,7.28
2018-12-11T23:41:22.300Z,3.90
2018-12-11T23:43:50.874Z,5.60
2018-12-11T23:46:19.434Z,5.30
2018-12-11T23:48:48.121Z,6.10
2018-12-11T23:51:16.672Z,6.83
2018-12-11T23:53:45.517Z,7.58
2018-12-11T23:56:14.079Z,4.28
2018-12-11T23:58:42.629Z,6.30
